sensor_id;sensor_type;location;lat;lon;timestamp;temperature;humidity
8872;DHT22;4472;52.092;9.820;2022-11-10T00:00:18;12.50;99.90
8872;DHT22;4472;52.092;9.820;2022-11-10T00:03:07;12.40;99.90
8872;DHT22;4472;52.092;9.820;2022-11-10T00:05:56;12.60;99.90
8872;DHT22;4472;52.092;9.820;2022-11-10T00:08:43;12.50;99.90
8872;DHT22;4472;52.092;9.820;2022-11-10T00:11:30;12.50;99.90
8872;DHT22;4472;52.092;9.820;2022-11-10T00:14:17;12.40;99.90
8872;DHT22;4472;52.092;9.820;2022-11-10T00:17:22;12.40;99.90
8872;DHT22;4472;52.092;9.820;2022-11-10T00:20:10;12.40;99.90
8872;DHT22;4472;52.092;9.820;2022-11-10T00:22:59;12.40;99.90
8872;DHT22;4472;52.092;9.820;2022-11-10T00:25:46;12.40;99.90
8872;DHT22;4472;52.092;9.820;2022-11-10T00:28:33;12.50;99.90
8872;DHT22;4472;52.092;9.820;2022-11-10T00:31:20;12.40;99.90
8872;DHT22;4472;52.092;9.820;2022-11-10T00:34:11;12.50;99.90
8872;DHT22;4472;52.092;9.820;2022-11-10T00:36:58;12.40;99.90
8872;DHT22;4472;52.092;9.820;2022-11-10T00:39:47;12.40;99.90
8872;DHT22;4472;52.092;9.820;2022-11-10T00:42:34;12.20;99.90
8872;DHT22;4472;52.092;9.820;2022-11-10T00:45:21;12.20;99.90
8872;DHT22;4472;52.092;9.820;2022-11-10T00:48:09;12.10;99.90
8872;DHT22;4472;52.092;9.820;2022-11-10T00:50:56;12.10;99.90
8872;DHT22;4472;52.092;9.820;2022-11-10T00:53:43;12.00;99.90
8872;DHT22;4472;52.092;9.820;2022-11-10T00:56:32;12.00;99.90
8872;DHT22;4472;52.092;9.820;2022-11-10T00:59:19;11.90;99.90
8872;DHT22;4472;52.092;9.820;2022-11-10T01:02:06;11.90;99.90
8872;DHT22;4472;52.092;9.820;2022-11-10T01:04:53;11.90;99.90
8872;DHT22;4472;52.092;9.820;2022-11-10T01:07:40;12.00;99.90
8872;DHT22;4472;52.092;9.820;2022-11-10T01:10:28;12.00;99.90
8872;DHT22;4472;52.092;9.820;2022-11-10T01:13:16;11.90;99.90
8872;DHT22;4472;52.092;9.820;2022-11-10T01:16:04;12.00;99.90
8872;DHT22;4472;52.092;9.820;2022-11-10T01:18:53;11.90;99.90
8872;DHT22;4472;52.092;9.820;2022-11-10T01:21:40;12.00;99.90
8872;DHT22;4472;52.092;9.820;2022-11-10T01:24:27;12.00;99.90
8872;DHT22;4472;52.092;9.820;2022-11-10T01:27:15;11.90;99.90
8872;DHT22;4472;52.092;9.820;2022-11-10T01:30:05;12.00;99.90
8872;DHT22;4472;52.092;9.820;2022-11-10T01:32:53;11.90;99.90
8872;DHT22;4472;52.092;9.820;2022-11-10T01:35:40;11.90;99.90
8872;DHT22;4472;52.092;9.820;2022-11-10T01:38:28;11.90;99.90
8872;DHT22;4472;52.092;9.820;2022-11-10T01:41:16;11.90;99.90
8872;DHT22;4472;52.092;9.820;2022-11-10T01:44:14;11.80;99.90
8872;DHT22;4472;52.092;9.820;2022-11-10T01:47:03;11.80;99.90
8872;DHT22;4472;52.092;9.820;2022-11-10T01:49:50;11.70;99.90
8872;DHT22;4472;52.092;9.820;2022-11-10T01:52:38;11.60;99.90
8872;DHT22;4472;52.092;9.820;2022-11-10T01:55:26;11.60;99.90
8872;DHT22;4472;52.092;9.820;2022-11-10T01:58:16;11.60;99.90
8872;DHT22;4472;52.092;9.820;2022-11-10T02:01:05;11.60;99.90
8872;DHT22;4472;52.092;9.820;2022-11-10T02:03:56;11.50;99.90
8872;DHT22;4472;52.092;9.820;2022-11-10T02:06:46;11.60;99.90
8872;DHT22;4472;52.092;9.820;2022-11-10T02:09:34;11.60;99.90
8872;DHT22;4472;52.092;9.820;2022-11-10T02:15:22;11.50;99.90
8872;DHT22;4472;52.092;9.820;2022-11-10T02:26:36;11.50;99.90
8872;DHT22;4472;52.092;9.820;2022-11-10T02:29:27;11.40;99.90
8872;DHT22;4472;52.092;9.820;2022-11-10T02:32:14;11.40;99.90
8872;DHT22;4472;52.092;9.820;2022-11-10T02:35:01;11.40;99.90
8872;DHT22;4472;52.092;9.820;2022-11-10T02:37:50;11.40;99.90
8872;DHT22;4472;52.092;9.820;2022-11-10T02:40:37;11.50;99.90
8872;DHT22;4472;52.092;9.820;2022-11-10T02:43:24;11.40;99.90
8872;DHT22;4472;52.092;9.820;2022-11-10T02:46:11;11.50;99.90
8872;DHT22;4472;52.092;9.820;2022-11-10T02:48:58;11.40;99.90
8872;DHT22;4472;52.092;9.820;2022-11-10T02:51:46;11.50;99.90
8872;DHT22;4472;52.092;9.820;2022-11-10T02:54:34;11.50;99.90
8872;DHT22;4472;52.092;9.820;2022-11-10T02:57:21;11.60;99.90
8872;DHT22;4472;52.092;9.820;2022-11-10T03:00:10;11.60;99.90
8872;DHT22;4472;52.092;9.820;2022-11-10T03:02:58;11.70;99.90
8872;DHT22;4472;52.092;9.820;2022-11-10T03:05:46;11.60;99.90
8872;DHT22;4472;52.092;9.820;2022-11-10T03:08:34;11.60;99.90
8872;DHT22;4472;52.092;9.820;2022-11-10T03:11:22;11.60;99.90
8872;DHT22;4472;52.092;9.820;2022-11-10T03:14:10;11.60;99.90
8872;DHT22;4472;52.092;9.820;2022-11-10T03:16:57;11.50;99.90
8872;DHT22;4472;52.092;9.820;2022-11-10T03:19:44;11.50;99.90
8872;DHT22;4472;52.092;9.820;2022-11-10T03:22:31;11.50;99.90
8872;DHT22;4472;52.092;9.820;2022-11-10T03:25:18;11.40;99.90
8872;DHT22;4472;52.092;9.820;2022-11-10T03:28:07;11.40;99.90
8872;DHT22;4472;52.092;9.820;2022-11-10T03:30:54;11.40;99.90
8872;DHT22;4472;52.092;9.820;2022-11-10T03:33:41;11.30;99.90
8872;DHT22;4472;52.092;9.820;2022-11-10T03:36:29;11.20;99.90
8872;DHT22;4472;52.092;9.820;2022-11-10T03:39:16;11.30;99.90
8872;DHT22;4472;52.092;9.820;2022-11-10T03:42:03;11.30;99.90
8872;DHT22;4472;52.092;9.820;2022-11-10T03:44:52;11.20;99.90
8872;DHT22;4472;52.092;9.820;2022-11-10T03:47:39;11.20;99.90
8872;DHT22;4472;52.092;9.820;2022-11-10T03:50:27;11.00;99.90
8872;DHT22;4472;52.092;9.820;2022-11-10T03:53:14;11.20;99.90
8872;DHT22;4472;52.092;9.820;2022-11-10T03:56:01;11.20;99.90
8872;DHT22;4472;52.092;9.820;2022-11-10T03:58:49;11.20;99.90
8872;DHT22;4472;52.092;9.820;2022-11-10T04:01:37;11.20;99.90
8872;DHT22;4472;52.092;9.820;2022-11-10T04:04:24;11.30;99.90
8872;DHT22;4472;52.092;9.820;2022-11-10T04:07:29;11.30;99.90
8872;DHT22;4472;52.092;9.820;2022-11-10T04:10:34;11.30;99.90
8872;DHT22;4472;52.092;9.820;2022-11-10T04:13:22;11.30;99.90
8872;DHT22;4472;52.092;9.820;2022-11-10T04:16:26;11.30;99.90
8872;DHT22;4472;52.092;9.820;2022-11-10T04:19:15;11.20;99.90
8872;DHT22;4472;52.092;9.820;2022-11-10T04:22:02;11.20;99.90
8872;DHT22;4472;52.092;9.820;2022-11-10T04:24:49;10.90;99.90
8872;DHT22;4472;52.092;9.820;2022-11-10T04:27:37;11.20;99.90
8872;DHT22;4472;52.092;9.820;2022-11-10T04:30:25;11.10;99.90
8872;DHT22;4472;52.092;9.820;2022-11-10T04:33:12;11.20;99.90
8872;DHT22;4472;52.092;9.820;2022-11-10T04:36:00;11.10;99.90
8872;DHT22;4472;52.092;9.820;2022-11-10T04:38:48;11.10;99.90
8872;DHT22;4472;52.092;9.820;2022-11-10T04:41:35;11.10;99.90
8872;DHT22;4472;52.092;9.820;2022-11-10T04:44:22;11.20;99.90
8872;DHT22;4472;52.092;9.820;2022-11-10T04:49:58;11.10;99.90
8872;DHT22;4472;52.092;9.820;2022-11-10T04:52:46;11.10;99.90
8872;DHT22;4472;52.092;9.820;2022-11-10T04:55:33;11.10;99.90
8872;DHT22;4472;52.092;9.820;2022-11-10T04:58:20;11.10;99.90
8872;DHT22;4472;52.092;9.820;2022-11-10T05:01:10;11.10;99.90
8872;DHT22;4472;52.092;9.820;2022-11-10T05:03:58;11.20;99.90
8872;DHT22;4472;52.092;9.820;2022-11-10T05:06:45;11.10;99.90
8872;DHT22;4472;52.092;9.820;2022-11-10T05:09:34;11.30;99.90
8872;DHT22;4472;52.092;9.820;2022-11-10T05:12:21;11.50;99.90
8872;DHT22;4472;52.092;9.820;2022-11-10T05:15:09;11.30;99.90
8872;DHT22;4472;52.092;9.820;2022-11-10T05:17:57;11.40;99.90
8872;DHT22;4472;52.092;9.820;2022-11-10T05:20:44;11.60;99.90
8872;DHT22;4472;52.092;9.820;2022-11-10T05:23:31;11.50;99.90
8872;DHT22;4472;52.092;9.820;2022-11-10T05:26:26;11.60;99.90
8872;DHT22;4472;52.092;9.820;2022-11-10T05:29:13;11.60;99.90
8872;DHT22;4472;52.092;9.820;2022-11-10T05:32:01;11.70;99.90
8872;DHT22;4472;52.092;9.820;2022-11-10T05:34:48;11.70;99.90
8872;DHT22;4472;52.092;9.820;2022-11-10T05:37:38;11.80;99.90
8872;DHT22;4472;52.092;9.820;2022-11-10T05:40:26;12.00;99.90
8872;DHT22;4472;52.092;9.820;2022-11-10T05:43:15;11.70;99.90
8872;DHT22;4472;52.092;9.820;2022-11-10T05:46:02;11.70;99.90
8872;DHT22;4472;52.092;9.820;2022-11-10T05:48:49;11.80;99.90
8872;DHT22;4472;52.092;9.820;2022-11-10T05:51:37;11.80;99.90
8872;DHT22;4472;52.092;9.820;2022-11-10T05:54:24;11.80;99.90
8872;DHT22;4472;52.092;9.820;2022-11-10T05:57:11;12.00;99.90
8872;DHT22;4472;52.092;9.820;2022-11-10T06:00:00;11.90;99.90
8872;DHT22;4472;52.092;9.820;2022-11-10T06:02:56;11.90;99.90
8872;DHT22;4472;52.092;9.820;2022-11-10T06:05:44;11.90;99.90
8872;DHT22;4472;52.092;9.820;2022-11-10T06:08:31;11.90;99.90
8872;DHT22;4472;52.092;9.820;2022-11-10T06:11:19;12.00;99.90
8872;DHT22;4472;52.092;9.820;2022-11-10T06:14:06;12.00;99.90
8872;DHT22;4472;52.092;9.820;2022-11-10T06:16:55;12.00;99.90
8872;DHT22;4472;52.092;9.820;2022-11-10T06:19:42;12.00;99.90
8872;DHT22;4472;52.092;9.820;2022-11-10T06:22:29;12.00;99.90
8872;DHT22;4472;52.092;9.820;2022-11-10T06:25:16;12.10;99.90
8872;DHT22;4472;52.092;9.820;2022-11-10T06:28:04;12.00;99.90
8872;DHT22;4472;52.092;9.820;2022-11-10T06:30:51;12.00;99.90
8872;DHT22;4472;52.092;9.820;2022-11-10T06:33:40;12.00;99.90
8872;DHT22;4472;52.092;9.820;2022-11-10T06:36:28;12.10;99.90
8872;DHT22;4472;52.092;9.820;2022-11-10T06:39:15;12.10;99.90
8872;DHT22;4472;52.092;9.820;2022-11-10T06:42:02;12.20;99.90
8872;DHT22;4472;52.092;9.820;2022-11-10T06:44:50;12.30;99.90
8872;DHT22;4472;52.092;9.820;2022-11-10T06:47:37;12.20;99.90
8872;DHT22;4472;52.092;9.820;2022-11-10T06:50:25;12.10;99.90
8872;DHT22;4472;52.092;9.820;2022-11-10T06:53:12;12.30;99.90
8872;DHT22;4472;52.092;9.820;2022-11-10T06:56:00;12.20;99.90
8872;DHT22;4472;52.092;9.820;2022-11-10T06:58:47;12.10;99.90
8872;DHT22;4472;52.092;9.820;2022-11-10T07:01:34;12.10;99.90
8872;DHT22;4472;52.092;9.820;2022-11-10T07:04:21;12.20;99.90
8872;DHT22;4472;52.092;9.820;2022-11-10T07:07:10;12.20;99.90
8872;DHT22;4472;52.092;9.820;2022-11-10T07:09:58;12.30;99.90
8872;DHT22;4472;52.092;9.820;2022-11-10T07:12:46;12.20;99.90
8872;DHT22;4472;52.092;9.820;2022-11-10T07:15:33;12.10;99.90
8872;DHT22;4472;52.092;9.820;2022-11-10T07:18:20;12.10;99.90
8872;DHT22;4472;52.092;9.820;2022-11-10T07:21:08;12.20;99.90
8872;DHT22;4472;52.092;9.820;2022-11-10T07:23:59;12.10;99.90
8872;DHT22;4472;52.092;9.820;2022-11-10T07:26:46;12.20;99.90
8872;DHT22;4472;52.092;9.820;2022-11-10T07:29:36;12.20;99.90
8872;DHT22;4472;52.092;9.820;2022-11-10T07:32:24;12.30;99.90
8872;DHT22;4472;52.092;9.820;2022-11-10T07:35:12;12.30;99.90
8872;DHT22;4472;52.092;9.820;2022-11-10T07:38:01;12.30;99.90
8872;DHT22;4472;52.092;9.820;2022-11-10T07:40:54;12.30;99.90
8872;DHT22;4472;52.092;9.820;2022-11-10T07:43:41;12.40;99.90
8872;DHT22;4472;52.092;9.820;2022-11-10T07:46:28;12.50;99.90
8872;DHT22;4472;52.092;9.820;2022-11-10T07:49:16;12.50;99.90
8872;DHT22;4472;52.092;9.820;2022-11-10T07:52:03;12.60;99.90
8872;DHT22;4472;52.092;9.820;2022-11-10T07:54:50;12.60;99.90
8872;DHT22;4472;52.092;9.820;2022-11-10T07:57:39;12.60;99.90
8872;DHT22;4472;52.092;9.820;2022-11-10T08:00:26;12.60;99.90
8872;DHT22;4472;52.092;9.820;2022-11-10T08:03:15;12.60;99.90
8872;DHT22;4472;52.092;9.820;2022-11-10T08:06:03;12.60;99.90
8872;DHT22;4472;52.092;9.820;2022-11-10T08:08:50;12.60;99.90
8872;DHT22;4472;52.092;9.820;2022-11-10T08:11:37;12.60;99.90
8872;DHT22;4472;52.092;9.820;2022-11-10T08:14:26;12.60;99.90
8872;DHT22;4472;52.092;9.820;2022-11-10T08:17:14;12.70;99.90
8872;DHT22;4472;52.092;9.820;2022-11-10T08:20:01;12.70;99.90
8872;DHT22;4472;52.092;9.820;2022-11-10T08:22:55;12.70;99.90
8872;DHT22;4472;52.092;9.820;2022-11-10T08:25:44;12.80;99.90
8872;DHT22;4472;52.092;9.820;2022-11-10T08:28:31;12.90;99.90
8872;DHT22;4472;52.092;9.820;2022-11-10T08:31:20;13.00;99.90
8872;DHT22;4472;52.092;9.820;2022-11-10T08:34:07;13.10;99.90
8872;DHT22;4472;52.092;9.820;2022-11-10T08:36:55;13.10;99.90
8872;DHT22;4472;52.092;9.820;2022-11-10T08:39:42;13.30;99.90
8872;DHT22;4472;52.092;9.820;2022-11-10T08:42:29;13.30;99.90
8872;DHT22;4472;52.092;9.820;2022-11-10T08:45:16;13.30;99.90
8872;DHT22;4472;52.092;9.820;2022-11-10T08:48:06;13.50;99.90
8872;DHT22;4472;52.092;9.820;2022-11-10T08:50:54;13.50;99.90
8872;DHT22;4472;52.092;9.820;2022-11-10T08:53:41;13.60;99.90
8872;DHT22;4472;52.092;9.820;2022-11-10T08:56:28;13.60;99.90
8872;DHT22;4472;52.092;9.820;2022-11-10T08:59:16;13.90;99.90
8872;DHT22;4472;52.092;9.820;2022-11-10T09:02:03;13.70;99.90
8872;DHT22;4472;52.092;9.820;2022-11-10T09:04:52;13.70;99.90
8872;DHT22;4472;52.092;9.820;2022-11-10T09:07:43;13.80;99.90
8872;DHT22;4472;52.092;9.820;2022-11-10T09:10:31;13.70;99.90
8872;DHT22;4472;52.092;9.820;2022-11-10T09:13:19;13.70;99.90
8872;DHT22;4472;52.092;9.820;2022-11-10T09:16:07;13.70;99.90
8872;DHT22;4472;52.092;9.820;2022-11-10T09:18:54;13.70;99.90
8872;DHT22;4472;52.092;9.820;2022-11-10T09:21:43;13.80;99.90
8872;DHT22;4472;52.092;9.820;2022-11-10T09:24:30;13.70;99.90
8872;DHT22;4472;52.092;9.820;2022-11-10T09:27:18;13.70;99.90
8872;DHT22;4472;52.092;9.820;2022-11-10T09:30:06;13.80;99.90
8872;DHT22;4472;52.092;9.820;2022-11-10T09:32:53;13.80;99.90
8872;DHT22;4472;52.092;9.820;2022-11-10T09:35:41;13.80;99.90
8872;DHT22;4472;52.092;9.820;2022-11-10T09:38:29;13.70;99.90
8872;DHT22;4472;52.092;9.820;2022-11-10T09:41:17;13.80;99.90
8872;DHT22;4472;52.092;9.820;2022-11-10T09:44:08;13.80;99.90
8872;DHT22;4472;52.092;9.820;2022-11-10T09:47:00;14.00;99.90
8872;DHT22;4472;52.092;9.820;2022-11-10T09:49:52;13.90;99.90
8872;DHT22;4472;52.092;9.820;2022-11-10T09:52:44;14.00;99.90
8872;DHT22;4472;52.092;9.820;2022-11-10T09:55:40;13.90;99.90
8872;DHT22;4472;52.092;9.820;2022-11-10T09:58:32;13.90;99.90
8872;DHT22;4472;52.092;9.820;2022-11-10T10:01:28;13.80;99.90
8872;DHT22;4472;52.092;9.820;2022-11-10T10:04:29;13.90;99.90
8872;DHT22;4472;52.092;9.820;2022-11-10T10:07:23;13.90;99.90
8872;DHT22;4472;52.092;9.820;2022-11-10T10:10:14;13.80;99.90
8872;DHT22;4472;52.092;9.820;2022-11-10T10:13:24;13.90;99.90
8872;DHT22;4472;52.092;9.820;2022-11-10T10:16:18;13.90;99.90
8872;DHT22;4472;52.092;9.820;2022-11-10T10:19:15;13.80;99.90
8872;DHT22;4472;52.092;9.820;2022-11-10T10:22:29;13.80;99.90
8872;DHT22;4472;52.092;9.820;2022-11-10T10:25:22;13.80;99.90
8872;DHT22;4472;52.092;9.820;2022-11-10T10:28:21;13.70;99.90
8872;DHT22;4472;52.092;9.820;2022-11-10T10:31:14;13.70;99.90
8872;DHT22;4472;52.092;9.820;2022-11-10T10:34:07;13.80;99.90
8872;DHT22;4472;52.092;9.820;2022-11-10T10:36:56;13.80;99.90
8872;DHT22;4472;52.092;9.820;2022-11-10T10:39:46;13.80;99.90
8872;DHT22;4472;52.092;9.820;2022-11-10T10:42:36;14.00;99.90
8872;DHT22;4472;52.092;9.820;2022-11-10T10:45:27;14.00;99.90
8872;DHT22;4472;52.092;9.820;2022-11-10T10:48:26;14.10;99.90
8872;DHT22;4472;52.092;9.820;2022-11-10T10:51:27;14.20;99.90
8872;DHT22;4472;52.092;9.820;2022-11-10T10:54:25;14.20;99.90
8872;DHT22;4472;52.092;9.820;2022-11-10T10:57:21;14.20;99.90
8872;DHT22;4472;52.092;9.820;2022-11-10T11:00:17;14.20;99.90
8872;DHT22;4472;52.092;9.820;2022-11-10T11:03:26;14.20;99.90
8872;DHT22;4472;52.092;9.820;2022-11-10T11:06:22;14.30;99.90
8872;DHT22;4472;52.092;9.820;2022-11-10T11:09:16;14.40;99.90
8872;DHT22;4472;52.092;9.820;2022-11-10T11:12:06;14.40;99.90
8872;DHT22;4472;52.092;9.820;2022-11-10T11:15:11;14.40;99.90
8872;DHT22;4472;52.092;9.820;2022-11-10T11:18:01;14.50;99.90
8872;DHT22;4472;52.092;9.820;2022-11-10T11:20:54;14.60;99.90
8872;DHT22;4472;52.092;9.820;2022-11-10T11:23:57;14.70;99.90
8872;DHT22;4472;52.092;9.820;2022-11-10T11:26:51;14.80;99.90
8872;DHT22;4472;52.092;9.820;2022-11-10T11:30:04;14.80;99.90
8872;DHT22;4472;52.092;9.820;2022-11-10T11:33:09;14.90;99.90
8872;DHT22;4472;52.092;9.820;2022-11-10T11:36:07;15.00;99.90
8872;DHT22;4472;52.092;9.820;2022-11-10T11:39:05;15.00;99.90
8872;DHT22;4472;52.092;9.820;2022-11-10T11:42:02;15.10;99.90
8872;DHT22;4472;52.092;9.820;2022-11-10T11:45:02;15.10;99.90
8872;DHT22;4472;52.092;9.820;2022-11-10T11:48:07;15.00;99.90
8872;DHT22;4472;52.092;9.820;2022-11-10T11:51:01;14.90;99.90
8872;DHT22;4472;52.092;9.820;2022-11-10T11:54:06;14.90;99.90
8872;DHT22;4472;52.092;9.820;2022-11-10T11:57:07;14.90;99.90
8872;DHT22;4472;52.092;9.820;2022-11-10T12:00:07;14.90;99.90
8872;DHT22;4472;52.092;9.820;2022-11-10T12:06:40;15.60;99.90
8872;DHT22;4472;52.092;9.820;2022-11-10T12:09:38;14.90;99.90
8872;DHT22;4472;52.092;9.820;2022-11-10T12:12:50;14.90;99.90
8872;DHT22;4472;52.092;9.820;2022-11-10T12:15:50;15.00;99.90
8872;DHT22;4472;52.092;9.820;2022-11-10T12:18:45;14.90;99.90
8872;DHT22;4472;52.092;9.820;2022-11-10T12:21:41;15.00;99.90
8872;DHT22;4472;52.092;9.820;2022-11-10T12:24:42;14.90;99.90
8872;DHT22;4472;52.092;9.820;2022-11-10T12:27:35;14.90;99.90
8872;DHT22;4472;52.092;9.820;2022-11-10T12:30:24;14.70;99.90
8872;DHT22;4472;52.092;9.820;2022-11-10T12:33:25;14.80;99.90
8872;DHT22;4472;52.092;9.820;2022-11-10T12:36:19;14.70;99.90
8872;DHT22;4472;52.092;9.820;2022-11-10T12:39:15;14.70;99.90
8872;DHT22;4472;52.092;9.820;2022-11-10T12:42:09;14.80;99.90
8872;DHT22;4472;52.092;9.820;2022-11-10T12:45:00;14.80;99.90
8872;DHT22;4472;52.092;9.820;2022-11-10T12:47:48;14.80;99.90
8872;DHT22;4472;52.092;9.820;2022-11-10T12:50:41;14.90;99.90
8872;DHT22;4472;52.092;9.820;2022-11-10T12:53:32;14.90;99.90
8872;DHT22;4472;52.092;9.820;2022-11-10T12:56:24;14.80;99.90
8872;DHT22;4472;52.092;9.820;2022-11-10T12:59:28;14.90;99.90
8872;DHT22;4472;52.092;9.820;2022-11-10T13:02:24;15.00;99.90
8872;DHT22;4472;52.092;9.820;2022-11-10T13:05:26;15.00;99.90
8872;DHT22;4472;52.092;9.820;2022-11-10T13:08:32;15.20;99.90
8872;DHT22;4472;52.092;9.820;2022-11-10T13:11:24;15.20;99.90
8872;DHT22;4472;52.092;9.820;2022-11-10T13:14:23;15.20;99.90
8872;DHT22;4472;52.092;9.820;2022-11-10T13:17:51;15.30;99.90
8872;DHT22;4472;52.092;9.820;2022-11-10T13:20:50;15.20;99.90
8872;DHT22;4472;52.092;9.820;2022-11-10T13:24:16;15.20;99.90
8872;DHT22;4472;52.092;9.820;2022-11-10T13:27:10;15.40;99.90
8872;DHT22;4472;52.092;9.820;2022-11-10T13:29:58;15.30;99.90
8872;DHT22;4472;52.092;9.820;2022-11-10T13:32:47;15.20;99.90
8872;DHT22;4472;52.092;9.820;2022-11-10T13:35:54;15.20;99.90
8872;DHT22;4472;52.092;9.820;2022-11-10T13:38:42;15.40;99.90
8872;DHT22;4472;52.092;9.820;2022-11-10T13:41:32;15.10;99.90
8872;DHT22;4472;52.092;9.820;2022-11-10T13:44:24;15.20;99.90
8872;DHT22;4472;52.092;9.820;2022-11-10T13:47:41;15.20;99.90
8872;DHT22;4472;52.092;9.820;2022-11-10T13:50:42;15.20;99.90
8872;DHT22;4472;52.092;9.820;2022-11-10T13:53:39;15.10;99.90
8872;DHT22;4472;52.092;9.820;2022-11-10T13:56:50;15.10;99.90
8872;DHT22;4472;52.092;9.820;2022-11-10T13:59:46;15.10;99.90
8872;DHT22;4472;52.092;9.820;2022-11-10T14:02:49;15.10;99.90
8872;DHT22;4472;52.092;9.820;2022-11-10T14:06:03;15.10;99.90
8872;DHT22;4472;52.092;9.820;2022-11-10T14:08:55;15.10;99.90
8872;DHT22;4472;52.092;9.820;2022-11-10T14:11:48;15.10;99.90
8872;DHT22;4472;52.092;9.820;2022-11-10T14:14:48;15.10;99.90
8872;DHT22;4472;52.092;9.820;2022-11-10T14:17:42;15.10;99.90
8872;DHT22;4472;52.092;9.820;2022-11-10T14:20:40;15.20;99.90
8872;DHT22;4472;52.092;9.820;2022-11-10T14:23:34;15.20;99.90
8872;DHT22;4472;52.092;9.820;2022-11-10T14:26:27;15.20;99.90
8872;DHT22;4472;52.092;9.820;2022-11-10T14:29:26;15.10;99.90
8872;DHT22;4472;52.092;9.820;2022-11-10T14:32:16;15.10;99.90
8872;DHT22;4472;52.092;9.820;2022-11-10T14:35:14;15.00;99.90
8872;DHT22;4472;52.092;9.820;2022-11-10T14:38:05;14.90;99.90
8872;DHT22;4472;52.092;9.820;2022-11-10T14:40:56;14.90;99.90
8872;DHT22;4472;52.092;9.820;2022-11-10T14:43:56;14.80;99.90
8872;DHT22;4472;52.092;9.820;2022-11-10T14:46:47;14.70;99.90
8872;DHT22;4472;52.092;9.820;2022-11-10T14:49:34;14.90;99.90
8872;DHT22;4472;52.092;9.820;2022-11-10T14:52:21;14.70;99.90
8872;DHT22;4472;52.092;9.820;2022-11-10T14:55:14;14.70;99.90
8872;DHT22;4472;52.092;9.820;2022-11-10T14:58:06;14.70;99.90
8872;DHT22;4472;52.092;9.820;2022-11-10T15:00:56;14.80;99.90
8872;DHT22;4472;52.092;9.820;2022-11-10T15:03:43;14.90;99.90
8872;DHT22;4472;52.092;9.820;2022-11-10T15:06:31;14.90;99.90
8872;DHT22;4472;52.092;9.820;2022-11-10T15:09:23;14.70;99.90
8872;DHT22;4472;52.092;9.820;2022-11-10T15:12:25;14.70;99.90
8872;DHT22;4472;52.092;9.820;2022-11-10T15:15:21;14.60;99.90
8872;DHT22;4472;52.092;9.820;2022-11-10T15:18:23;14.50;99.90
8872;DHT22;4472;52.092;9.820;2022-11-10T15:21:12;14.40;99.90
8872;DHT22;4472;52.092;9.820;2022-11-10T15:24:01;14.30;99.90
8872;DHT22;4472;52.092;9.820;2022-11-10T15:26:49;14.30;99.90
8872;DHT22;4472;52.092;9.820;2022-11-10T15:29:36;14.20;99.90
8872;DHT22;4472;52.092;9.820;2022-11-10T15:32:30;14.30;99.90
8872;DHT22;4472;52.092;9.820;2022-11-10T15:35:30;14.00;99.90
8872;DHT22;4472;52.092;9.820;2022-11-10T15:38:38;14.00;99.90
8872;DHT22;4472;52.092;9.820;2022-11-10T15:41:26;13.90;99.90
8872;DHT22;4472;52.092;9.820;2022-11-10T15:44:18;13.70;99.90
8872;DHT22;4472;52.092;9.820;2022-11-10T15:47:09;13.60;99.90
8872;DHT22;4472;52.092;9.820;2022-11-10T15:49:59;13.50;99.90
8872;DHT22;4472;52.092;9.820;2022-11-10T15:52:46;13.40;99.90
8872;DHT22;4472;52.092;9.820;2022-11-10T15:55:33;13.30;99.90
8872;DHT22;4472;52.092;9.820;2022-11-10T15:58:22;13.20;99.90
8872;DHT22;4472;52.092;9.820;2022-11-10T16:01:10;13.10;99.90
8872;DHT22;4472;52.092;9.820;2022-11-10T16:03:58;13.00;99.90
8872;DHT22;4472;52.092;9.820;2022-11-10T16:06:46;12.90;99.90
8872;DHT22;4472;52.092;9.820;2022-11-10T16:09:33;12.80;99.90
8872;DHT22;4472;52.092;9.820;2022-11-10T16:12:21;12.70;99.90
8872;DHT22;4472;52.092;9.820;2022-11-10T16:15:15;12.70;99.90
8872;DHT22;4472;52.092;9.820;2022-11-10T16:18:09;12.50;99.90
8872;DHT22;4472;52.092;9.820;2022-11-10T16:20:57;12.50;99.90
8872;DHT22;4472;52.092;9.820;2022-11-10T16:23:45;12.40;99.90
8872;DHT22;4472;52.092;9.820;2022-11-10T16:26:33;12.50;99.90
8872;DHT22;4472;52.092;9.820;2022-11-10T16:29:20;12.30;99.90
8872;DHT22;4472;52.092;9.820;2022-11-10T16:32:09;12.00;99.90
8872;DHT22;4472;52.092;9.820;2022-11-10T16:34:56;12.20;99.90
8872;DHT22;4472;52.092;9.820;2022-11-10T16:37:44;12.20;99.90
8872;DHT22;4472;52.092;9.820;2022-11-10T16:40:32;12.10;99.90
8872;DHT22;4472;52.092;9.820;2022-11-10T16:43:20;12.10;99.90
8872;DHT22;4472;52.092;9.820;2022-11-10T16:46:16;12.10;99.90
8872;DHT22;4472;52.092;9.820;2022-11-10T16:49:05;12.00;99.90
8872;DHT22;4472;52.092;9.820;2022-11-10T16:51:55;12.00;99.90
8872;DHT22;4472;52.092;9.820;2022-11-10T16:54:43;11.90;99.90
8872;DHT22;4472;52.092;9.820;2022-11-10T16:57:31;11.90;99.90
8872;DHT22;4472;52.092;9.820;2022-11-10T17:00:19;12.00;99.90
8872;DHT22;4472;52.092;9.820;2022-11-10T17:03:11;11.90;99.90
8872;DHT22;4472;52.092;9.820;2022-11-10T17:06:00;11.80;99.90
8872;DHT22;4472;52.092;9.820;2022-11-10T17:08:48;11.80;99.90
8872;DHT22;4472;52.092;9.820;2022-11-10T17:11:37;11.90;99.90
8872;DHT22;4472;52.092;9.820;2022-11-10T17:14:25;11.70;99.90
8872;DHT22;4472;52.092;9.820;2022-11-10T17:17:15;11.60;99.90
8872;DHT22;4472;52.092;9.820;2022-11-10T17:20:04;11.60;99.90
8872;DHT22;4472;52.092;9.820;2022-11-10T17:22:52;11.60;99.90
8872;DHT22;4472;52.092;9.820;2022-11-10T17:25:39;11.50;99.90
8872;DHT22;4472;52.092;9.820;2022-11-10T17:28:27;11.70;99.90
8872;DHT22;4472;52.092;9.820;2022-11-10T17:31:16;11.60;99.90
8872;DHT22;4472;52.092;9.820;2022-11-10T17:34:03;11.60;99.90
8872;DHT22;4472;52.092;9.820;2022-11-10T17:36:51;11.60;99.90
8872;DHT22;4472;52.092;9.820;2022-11-10T17:39:38;11.70;99.90
8872;DHT22;4472;52.092;9.820;2022-11-10T17:42:26;11.70;99.90
8872;DHT22;4472;52.092;9.820;2022-11-10T17:45:18;11.70;99.90
8872;DHT22;4472;52.092;9.820;2022-11-10T17:48:07;11.80;99.90
8872;DHT22;4472;52.092;9.820;2022-11-10T17:50:54;11.80;99.90
8872;DHT22;4472;52.092;9.820;2022-11-10T17:53:42;11.80;99.90
8872;DHT22;4472;52.092;9.820;2022-11-10T17:56:29;11.80;99.90
8872;DHT22;4472;52.092;9.820;2022-11-10T17:59:16;11.80;99.90
8872;DHT22;4472;52.092;9.820;2022-11-10T18:02:05;11.80;99.90
8872;DHT22;4472;52.092;9.820;2022-11-10T18:04:54;11.80;99.90
8872;DHT22;4472;52.092;9.820;2022-11-10T18:07:41;11.80;99.90
8872;DHT22;4472;52.092;9.820;2022-11-10T18:10:29;11.80;99.90
8872;DHT22;4472;52.092;9.820;2022-11-10T18:13:16;12.00;99.90
8872;DHT22;4472;52.092;9.820;2022-11-10T18:16:05;11.90;99.90
8872;DHT22;4472;52.092;9.820;2022-11-10T18:18:53;11.90;99.90
8872;DHT22;4472;52.092;9.820;2022-11-10T18:21:42;12.10;99.90
8872;DHT22;4472;52.092;9.820;2022-11-10T18:24:29;12.10;99.90
8872;DHT22;4472;52.092;9.820;2022-11-10T18:27:16;12.00;99.90
8872;DHT22;4472;52.092;9.820;2022-11-10T18:30:04;11.90;99.90
8872;DHT22;4472;52.092;9.820;2022-11-10T18:32:51;11.90;99.90
8872;DHT22;4472;52.092;9.820;2022-11-10T18:35:39;12.00;99.90
8872;DHT22;4472;52.092;9.820;2022-11-10T18:38:28;12.00;99.90
8872;DHT22;4472;52.092;9.820;2022-11-10T18:41:15;11.90;99.90
8872;DHT22;4472;52.092;9.820;2022-11-10T18:44:20;11.90;99.90
8872;DHT22;4472;52.092;9.820;2022-11-10T18:47:11;11.80;99.90
8872;DHT22;4472;52.092;9.820;2022-11-10T18:49:58;11.80;99.90
8872;DHT22;4472;52.092;9.820;2022-11-10T18:52:46;11.80;99.90